createdAt,value
2023-05-18T00:01:24.235Z,45.29
2023-05-18T00:05:03.528Z,44.42
2023-05-18T00:08:09.874Z,43.41
2023-05-18T00:11:14.798Z,46.79
2023-05-18T00:14:19.243Z,46.75
2023-05-18T00:17:23.209Z,47.44
2023-05-18T00:20:27.689Z,45.58
2023-05-18T00:23:34.962Z,43.32
2023-05-18T00:26:40.674Z,45.30
2023-05-18T00:29:44.530Z,42.50
2023-05-18T00:32:52.689Z,43.04
2023-05-18T00:35:58.255Z,41.72
2023-05-18T00:39:02.805Z,40.83
2023-05-18T00:42:07.144Z,38.24
2023-05-18T00:45:11.889Z,39.01
2023-05-18T00:48:18.062Z,41.01
2023-05-18T00:51:24.362Z,42.16
2023-05-18T00:54:31.470Z,41.54
2023-05-18T00:57:39.263Z,38.92
2023-05-18T01:00:43.526Z,39.42
2023-05-18T01:03:47.787Z,40.85
2023-05-18T01:06:57.353Z,42.15
2023-05-18T01:10:02.152Z,41.12
2023-05-18T01:13:16.523Z,41.01
2023-05-18T01:16:27.818Z,43.18
2023-05-18T01:19:38.433Z,43.50
2023-05-18T01:22:57.534Z,44.12
2023-05-18T01:26:16.027Z,46.78
2023-05-18T01:29:22.166Z,47.28
2023-05-18T01:32:26.736Z,47.44
2023-05-18T01:35:30.947Z,48.48
2023-05-18T01:38:36.344Z,48.18
2023-05-18T01:41:42.856Z,47.12
2023-05-18T01:44:54.718Z,46.13
2023-05-18T01:48:02.460Z,42.36
2023-05-18T01:51:10.533Z,41.64
2023-05-18T01:54:18.736Z,38.92
2023-05-18T01:57:27.183Z,38.68
2023-05-18T02:00:31.756Z,37.12
2023-05-18T02:03:36.586Z,38.78
2023-05-18T02:06:41.551Z,38.67
2023-05-18T02:09:45.852Z,38.55
2023-05-18T02:12:53.302Z,38.66
2023-05-18T02:15:58.914Z,38.49
2023-05-18T02:19:04.183Z,39.31
2023-05-18T02:22:09.072Z,38.62
2023-05-18T02:25:13.353Z,39.10
2023-05-18T02:28:17.476Z,39.99
2023-05-18T02:31:22.783Z,39.41
2023-05-18T02:34:28.380Z,38.71
2023-05-18T02:37:35.368Z,39.14
2023-05-18T02:40:39.436Z,40.56
2023-05-18T02:43:43.696Z,39.41
2023-05-18T02:46:47.755Z,37.60
2023-05-18T02:49:52.510Z,37.61
2023-05-18T02:52:56.740Z,36.59
2023-05-18T02:56:04.199Z,34.80
2023-05-18T02:59:18.677Z,35.69
2023-05-18T03:02:24.761Z,34.63
2023-05-18T03:05:29.230Z,34.90
2023-05-18T03:08:33.633Z,34.52
2023-05-18T03:11:37.684Z,34.94
2023-05-18T03:14:42.725Z,33.22
2023-05-18T03:17:47.432Z,34.75
2023-05-18T03:20:52.977Z,34.90
2023-05-18T03:23:56.814Z,33.92
2023-05-18T03:27:01.645Z,33.87
2023-05-18T03:30:06.480Z,32.44
2023-05-18T03:33:10.629Z,32.01
2023-05-18T03:42:00.512Z,31.11
2023-05-18T03:45:07.161Z,30.46
2023-05-18T03:48:11.177Z,32.13
2023-05-18T03:51:15.224Z,32.84
2023-05-18T03:54:23.290Z,32.98
2023-05-18T03:57:29.283Z,30.95
2023-05-18T04:00:33.189Z,31.29
2023-05-18T04:03:37.027Z,32.85
2023-05-18T04:06:41.655Z,32.89
2023-05-18T04:09:46.405Z,32.10
2023-05-18T04:12:50.813Z,33.17
2023-05-18T04:15:54.988Z,32.85
2023-05-18T04:18:58.782Z,33.15
2023-05-18T04:22:06.306Z,33.09
2023-05-18T04:25:13.938Z,32.65
2023-05-18T04:28:18.622Z,32.55
2023-05-18T04:31:22.756Z,31.77
2023-05-18T04:34:27.327Z,32.26
2023-05-18T04:37:31.478Z,32.76
2023-05-18T04:40:38.920Z,31.87
2023-05-18T04:43:43.492Z,32.04
2023-05-18T04:46:48.146Z,31.90
2023-05-18T04:49:55.073Z,30.74
2023-05-18T04:53:03.083Z,30.95
2023-05-18T04:56:07.525Z,30.46
2023-05-18T04:59:11.726Z,30.37
2023-05-18T05:02:15.657Z,30.69
2023-05-18T05:05:20.030Z,31.70
2023-05-18T05:08:24.025Z,31.27
2023-05-18T05:11:28.030Z,30.59
2023-05-18T05:14:31.978Z,30.09
2023-05-18T05:17:36.425Z,29.39
2023-05-18T05:20:44.181Z,29.71
2023-05-18T05:23:48.341Z,29.67
2023-05-18T05:26:52.273Z,29.50
2023-05-18T05:29:57.207Z,29.08
2023-05-18T05:33:01.460Z,28.85
2023-05-18T05:36:06.585Z,29.02
2023-05-18T05:39:11.114Z,29.10
2023-05-18T05:42:16.098Z,29.62
2023-05-18T05:45:20.703Z,26.93
2023-05-18T05:48:27.481Z,28.17
2023-05-18T05:51:31.588Z,27.41
2023-05-18T05:54:35.898Z,26.78
2023-05-18T05:57:43.535Z,27.12
2023-05-18T06:00:47.758Z,27.50
2023-05-18T06:03:52.828Z,27.25
2023-05-18T06:06:56.994Z,26.12
2023-05-18T06:10:01.162Z,26.20
2023-05-18T06:13:08.035Z,26.78
2023-05-18T06:16:19.190Z,26.49
2023-05-18T06:19:23.888Z,27.11
2023-05-18T06:22:28.887Z,26.71
2023-05-18T06:26:05.143Z,27.99
2023-05-18T06:29:09.859Z,27.55
2023-05-18T06:32:32.731Z,26.69
2023-05-18T06:35:37.364Z,25.84
2023-05-18T06:38:41.096Z,27.12
2023-05-18T06:41:48.329Z,27.09
2023-05-18T06:44:59.728Z,27.28
2023-05-18T06:48:29.050Z,27.77
2023-05-18T06:51:34.044Z,27.81
2023-05-18T06:54:39.260Z,28.03
2023-05-18T06:57:43.563Z,28.43
2023-05-18T07:00:49.331Z,28.72
2023-05-18T07:03:53.922Z,28.25
2023-05-18T07:06:57.875Z,27.72
2023-05-18T07:10:02.380Z,27.45
2023-05-18T07:13:07.878Z,27.57
2023-05-18T07:16:12.313Z,27.75
2023-05-18T07:19:16.352Z,27.16
2023-05-18T07:22:22.135Z,27.27
2023-05-18T07:25:27.017Z,27.44
2023-05-18T07:28:33.436Z,28.13
2023-05-18T07:31:41.441Z,27.97
2023-05-18T07:34:47.566Z,28.00
2023-05-18T07:37:52.756Z,28.50
2023-05-18T07:41:01.056Z,28.56
2023-05-18T07:44:05.482Z,28.36
2023-05-18T07:47:10.004Z,28.10
2023-05-18T07:50:14.206Z,27.68
2023-05-18T07:53:18.240Z,28.78
2023-05-18T07:56:23.355Z,28.51
2023-05-18T07:59:27.406Z,27.57
2023-05-18T08:02:33.619Z,28.05
2023-05-18T08:05:38.460Z,28.08
2023-05-18T08:08:42.678Z,28.15
2023-05-18T08:11:46.786Z,27.68
2023-05-18T08:14:50.822Z,27.07
2023-05-18T08:17:55.878Z,27.47
2023-05-18T08:21:00.037Z,28.21
2023-05-18T08:24:05.278Z,28.06
2023-05-18T08:27:10.852Z,27.45
2023-05-18T08:30:15.152Z,28.45
2023-05-18T08:33:19.165Z,28.59
2023-05-18T08:36:23.212Z,28.71
2023-05-18T08:39:27.357Z,28.52
2023-05-18T08:42:46.044Z,28.17
2023-05-18T08:46:06.083Z,28.25
2023-05-18T08:49:11.807Z,28.68
2023-05-18T08:52:20.536Z,28.37
2023-05-18T08:55:25.405Z,28.51
2023-05-18T08:58:49.125Z,28.96
2023-05-18T09:01:55.732Z,29.17
2023-05-18T09:05:00.642Z,29.15
2023-05-18T09:08:11.284Z,28.69
2023-05-18T09:11:17.552Z,29.73
2023-05-18T09:14:26.583Z,29.49
2023-05-18T09:17:31.284Z,29.94
2023-05-18T09:20:36.097Z,30.20
2023-05-18T09:23:43.465Z,30.56
2023-05-18T09:26:47.989Z,30.68
2023-05-18T09:29:56.692Z,30.82
2023-05-18T09:33:00.780Z,31.16
2023-05-18T09:36:09.774Z,30.94
2023-05-18T09:39:14.035Z,32.00
2023-05-18T09:42:18.124Z,32.21
2023-05-18T09:45:29.929Z,32.83
2023-05-18T09:48:36.068Z,33.41
2023-05-18T09:51:41.248Z,34.03
2023-05-18T09:54:45.511Z,34.84
2023-05-18T09:57:51.973Z,34.77
2023-05-18T10:01:02.581Z,37.49
2023-05-18T10:04:07.294Z,36.56
2023-05-18T10:07:16.755Z,38.21
2023-05-18T10:10:23.456Z,38.28
2023-05-18T10:13:29.911Z,39.65
2023-05-18T10:16:34.145Z,40.73
2023-05-18T10:19:39.350Z,41.62
2023-05-18T10:22:46.283Z,41.29
2023-05-18T10:25:52.001Z,42.23
2023-05-18T10:28:57.969Z,42.57
2023-05-18T10:32:07.515Z,42.30
2023-05-18T10:35:12.724Z,44.02
2023-05-18T10:38:28.299Z,45.76
2023-05-18T10:41:34.137Z,50.70
2023-05-18T10:44:41.178Z,46.85
2023-05-18T10:47:45.844Z,48.48
2023-05-18T10:50:54.502Z,49.30
2023-05-18T10:54:16.848Z,51.76
2023-05-18T10:57:25.307Z,50.93
2023-05-18T11:00:29.826Z,51.56
2023-05-18T11:03:34.767Z,51.53
2023-05-18T11:06:39.150Z,51.57
2023-05-18T11:09:46.270Z,52.19
2023-05-18T11:12:50.284Z,51.68
2023-05-18T11:16:16.386Z,53.35
2023-05-18T11:19:24.279Z,56.93
2023-05-18T11:22:48.041Z,54.48
2023-05-18T11:25:55.275Z,52.52
2023-05-18T11:29:00.291Z,53.54
2023-05-18T11:32:05.126Z,53.14
2023-05-18T11:35:25.121Z,55.98
2023-05-18T11:39:05.868Z,58.96
2023-05-18T11:42:15.438Z,56.31
2023-05-18T11:45:19.122Z,56.79
2023-05-18T11:48:24.425Z,57.23
2023-05-18T11:51:30.254Z,57.30
2023-05-18T11:55:02.730Z,58.81
2023-05-18T11:58:10.891Z,59.48
2023-05-18T12:01:15.384Z,59.66
2023-05-18T12:04:21.115Z,59.57
2023-05-18T12:07:35.308Z,58.36
2023-05-18T12:10:40.573Z,59.41
2023-05-18T12:13:45.064Z,59.96
2023-05-18T12:16:50.542Z,60.48
2023-05-18T12:19:57.305Z,60.95
2023-05-18T12:23:02.804Z,61.42
2023-05-18T12:26:08.211Z,61.65
2023-05-18T12:29:13.384Z,61.88
2023-05-18T12:32:18.181Z,62.36
2023-05-18T12:35:29.516Z,63.25
2023-05-18T12:38:35.296Z,62.20
2023-05-18T12:41:38.900Z,66.74
2023-05-18T12:44:46.001Z,62.44
2023-05-18T12:47:55.490Z,61.94
2023-05-18T12:50:59.782Z,62.42
2023-05-18T12:54:07.846Z,62.64
2023-05-18T12:57:13.339Z,63.37
2023-05-18T13:00:21.215Z,63.61
2023-05-18T13:03:25.257Z,64.03
2023-05-18T13:06:29.412Z,64.53
2023-05-18T13:09:33.264Z,65.07
2023-05-18T13:12:42.203Z,65.80
2023-05-18T13:15:47.690Z,64.87
2023-05-18T13:18:57.045Z,68.53
2023-05-18T13:22:01.846Z,66.40
2023-05-18T13:25:06.369Z,66.18
2023-05-18T13:28:12.138Z,66.15
2023-05-18T13:31:15.943Z,68.18
2023-05-18T13:34:19.763Z,64.90
2023-05-18T13:37:23.828Z,63.91
2023-05-18T13:40:28.433Z,64.64
2023-05-18T13:43:33.694Z,65.06
2023-05-18T13:46:38.531Z,66.44
2023-05-18T13:49:42.313Z,67.04
2023-05-18T13:52:47.393Z,67.23
2023-05-18T13:55:51.687Z,67.83
2023-05-18T13:58:55.573Z,68.30
2023-05-18T14:01:59.603Z,69.34
2023-05-18T14:05:04.472Z,69.45
2023-05-18T14:08:08.385Z,67.88
2023-05-18T14:11:12.255Z,68.34
2023-05-18T14:14:16.215Z,68.47
2023-05-18T14:17:20.229Z,68.21
2023-05-18T14:20:24.070Z,66.74
2023-05-18T14:23:28.251Z,67.04
2023-05-18T14:26:32.424Z,67.27
2023-05-18T14:29:36.318Z,68.43
2023-05-18T14:32:40.359Z,69.18
2023-05-18T14:35:44.193Z,70.11
2023-05-18T14:38:47.987Z,69.03
2023-05-18T14:41:52.339Z,68.65
2023-05-18T14:44:56.618Z,70.17
2023-05-18T14:48:00.441Z,71.58
2023-05-18T14:51:04.510Z,71.55
2023-05-18T14:54:08.439Z,71.50
2023-05-18T14:57:12.133Z,71.13
2023-05-18T15:00:16.327Z,70.22
2023-05-18T15:03:20.347Z,70.65
2023-05-18T15:06:28.871Z,69.63
2023-05-18T15:09:33.085Z,69.61
2023-05-18T15:12:36.977Z,70.94
2023-05-18T15:15:40.677Z,71.57
2023-05-18T15:18:44.724Z,71.80
2023-05-18T15:21:49.403Z,71.57
2023-05-18T15:24:53.527Z,71.89
2023-05-18T15:27:57.603Z,71.61
2023-05-18T15:31:01.339Z,71.90
2023-05-18T15:34:05.350Z,71.89
2023-05-18T15:37:09.302Z,70.93
2023-05-18T15:40:22.179Z,70.02
2023-05-18T15:43:29.156Z,70.55
2023-05-18T15:46:36.381Z,71.03
2023-05-18T15:49:45.898Z,71.68
2023-05-18T15:52:52.909Z,72.52
2023-05-18T15:55:59.291Z,71.83
2023-05-18T15:59:04.169Z,72.57
2023-05-18T16:02:11.251Z,72.80
2023-05-18T16:05:14.969Z,72.93
2023-05-18T16:08:18.935Z,72.74
2023-05-18T16:11:25.462Z,73.20
2023-05-18T16:14:29.291Z,73.68
2023-05-18T16:17:32.925Z,73.23
2023-05-18T16:20:36.817Z,73.46
2023-05-18T16:23:40.696Z,73.99
2023-05-18T16:26:45.024Z,73.98
2023-05-18T16:29:49.580Z,74.10
2023-05-18T16:32:55.492Z,74.03
2023-05-18T16:35:59.262Z,76.51
2023-05-18T16:39:03.851Z,75.11
2023-05-18T16:42:08.397Z,74.91
2023-05-18T16:45:12.320Z,74.52
2023-05-18T16:48:16.390Z,74.33
2023-05-18T16:51:20.318Z,73.89
2023-05-18T16:54:24.207Z,73.50
2023-05-18T16:57:28.464Z,73.46
2023-05-18T17:00:33.379Z,73.36
2023-05-18T17:03:38.916Z,73.68
2023-05-18T17:06:45.802Z,73.96
2023-05-18T17:09:49.446Z,74.48
2023-05-18T17:12:53.385Z,73.96
2023-05-18T17:15:57.362Z,74.70
2023-05-18T17:19:07.118Z,75.00
2023-05-18T17:22:11.784Z,75.52
2023-05-18T17:25:19.365Z,75.43
2023-05-18T17:28:29.427Z,74.88
2023-05-18T17:31:35.793Z,75.13
2023-05-18T17:34:41.146Z,74.59
2023-05-18T17:37:45.025Z,73.13
2023-05-18T17:40:49.227Z,74.52
2023-05-18T17:43:53.172Z,75.56
2023-05-18T17:46:58.119Z,75.20
2023-05-18T17:50:02.499Z,75.24
2023-05-18T17:53:06.958Z,74.47
2023-05-18T17:56:15.119Z,74.26
2023-05-18T17:59:19.078Z,73.17
2023-05-18T18:02:25.936Z,73.23
2023-05-18T18:05:30.516Z,74.59
2023-05-18T18:08:35.343Z,77.61
2023-05-18T18:11:39.310Z,76.13
2023-05-18T18:14:43.370Z,75.15
2023-05-18T18:17:47.396Z,74.80
2023-05-18T18:20:51.820Z,76.26
2023-05-18T18:23:58.267Z,76.35
2023-05-18T18:27:05.125Z,75.79
2023-05-18T18:30:09.812Z,75.77
2023-05-18T18:33:17.151Z,75.69
2023-05-18T18:36:22.798Z,76.16
2023-05-18T18:39:29.091Z,77.24
2023-05-18T18:42:33.830Z,77.51
2023-05-18T18:45:37.940Z,77.04
2023-05-18T18:48:42.045Z,76.36
2023-05-18T18:51:48.764Z,75.26
2023-05-18T18:54:53.329Z,75.51
2023-05-18T18:58:00.345Z,78.43
2023-05-18T19:01:05.208Z,78.95
2023-05-18T19:04:09.258Z,79.36
2023-05-18T19:07:13.180Z,79.03
2023-05-18T19:10:17.599Z,78.74
2023-05-18T19:13:24.862Z,76.95
2023-05-18T19:16:29.411Z,76.53
2023-05-18T19:19:33.836Z,76.77
2023-05-18T19:22:38.144Z,77.03
2023-05-18T19:25:42.352Z,77.85
2023-05-18T19:28:46.816Z,78.45
2023-05-18T19:31:50.998Z,78.99
2023-05-18T19:34:55.348Z,79.07
2023-05-18T19:37:59.794Z,78.38
2023-05-18T19:41:03.846Z,77.98
2023-05-18T19:44:08.069Z,77.23
2023-05-18T19:47:12.639Z,76.24
2023-05-18T19:50:16.880Z,76.02
2023-05-18T19:53:21.277Z,76.45
2023-05-18T19:56:26.229Z,78.16
2023-05-18T19:59:30.418Z,78.71
2023-05-18T20:02:34.421Z,77.55
2023-05-18T20:05:39.302Z,76.68
2023-05-18T20:08:44.375Z,75.70
2023-05-18T20:11:48.502Z,74.78
2023-05-18T20:14:52.565Z,75.95
2023-05-18T20:17:57.084Z,76.97
2023-05-18T20:21:01.274Z,76.35
2023-05-18T20:24:05.503Z,77.36
2023-05-18T20:27:09.801Z,77.97
2023-05-18T20:30:13.937Z,77.82
2023-05-18T20:33:18.404Z,77.95
2023-05-18T20:36:22.611Z,77.14
2023-05-18T20:39:27.598Z,76.78
2023-05-18T20:42:39.463Z,77.07
2023-05-18T20:45:43.818Z,76.48
2023-05-18T20:48:48.172Z,76.81
2023-05-18T20:51:52.639Z,77.33
2023-05-18T20:54:56.814Z,78.81
2023-05-18T20:58:03.490Z,78.38
2023-05-18T21:01:11.733Z,77.83
2023-05-18T21:04:17.283Z,78.07
2023-05-18T21:07:24.889Z,79.17
2023-05-18T21:10:29.470Z,79.61
2023-05-18T21:13:34.024Z,79.17
2023-05-18T21:16:38.433Z,78.48
2023-05-18T21:19:43.370Z,77.50
2023-05-18T21:22:47.787Z,77.64
2023-05-18T21:25:52.334Z,77.53
2023-05-18T21:28:56.357Z,77.55
2023-05-18T21:32:00.586Z,77.23
2023-05-18T21:35:04.958Z,76.27
2023-05-18T21:38:09.348Z,76.79
2023-05-18T21:41:16.169Z,76.43
2023-05-18T21:44:22.854Z,76.62
2023-05-18T21:47:27.316Z,75.60
2023-05-18T21:50:35.491Z,75.20
2023-05-18T21:53:39.883Z,74.97
2023-05-18T21:56:44.076Z,74.94
2023-05-18T21:59:48.156Z,74.02
2023-05-18T22:02:52.384Z,71.89
2023-05-18T22:05:56.585Z,71.28
2023-05-18T22:09:00.640Z,69.75
2023-05-18T22:12:04.869Z,68.77
2023-05-18T22:15:11.107Z,67.88
2023-05-18T22:18:15.966Z,64.55
2023-05-18T22:21:52.547Z,62.23
2023-05-18T22:24:56.785Z,58.54
2023-05-18T22:28:03.798Z,58.94
2023-05-18T22:31:08.157Z,55.10
2023-05-18T22:34:15.157Z,52.37
2023-05-18T22:37:19.105Z,52.10
2023-05-18T22:40:23.692Z,51.62
2023-05-18T22:43:27.710Z,49.32
2023-05-18T22:46:34.908Z,50.60
2023-05-18T22:49:44.083Z,50.26
2023-05-18T22:52:48.499Z,48.17
2023-05-18T22:55:55.718Z,49.42
2023-05-18T22:58:59.826Z,49.65
2023-05-18T23:02:04.632Z,49.77
2023-05-18T23:05:09.185Z,48.47
2023-05-18T23:08:14.921Z,48.03
2023-05-18T23:11:19.274Z,47.32
2023-05-18T23:14:26.607Z,48.89
2023-05-18T23:17:31.318Z,50.27
2023-05-18T23:20:36.671Z,50.33
2023-05-18T23:23:40.487Z,51.62
2023-05-18T23:26:45.712Z,49.88
2023-05-18T23:29:49.541Z,47.97
2023-05-18T23:32:54.072Z,45.66
2023-05-18T23:36:03.510Z,42.50
2023-05-18T23:39:08.098Z,43.22
2023-05-18T23:42:13.721Z,45.01
2023-05-18T23:45:18.025Z,43.30
2023-05-18T23:48:22.493Z,40.80
2023-05-18T23:51:30.558Z,40.65
2023-05-18T23:54:35.799Z,38.82
2023-05-18T23:57:40.804Z,38.37
